Time;durP1;ratioP1;P1;durP2;ratioP2;P2;SDS_P1;SDS_P2;PMS_P1;PMS_P2;Temp;Humidity;BMP_temperature;BMP_pressure;BME280_temperature;BME280_humidity;BME280_pressure;Samples;Min_cycle;Max_cycle;Signal;HPM_P1;HPM_P2
2023/08/25 00:02:25;;;;;;;24.02;17.35;;;19.70;99.90;;;;;;5012231;28;20038;-70
2023/08/25 00:04:50;;;;;;;21.63;17.10;;;19.70;99.90;;;;;;5023681;28;20049;-69
2023/08/25 00:07:16;;;;;;;23.92;16.98;;;19.60;99.90;;;;;;5032959;28;20206;-69
2023/08/25 00:09:44;;;;;;;22.55;16.90;;;19.60;99.90;;;;;;5034129;28;20487;-69
2023/08/25 00:12:11;;;;;;;22.38;17.00;;;19.60;99.90;;;;;;5007529;28;20041;-70
2023/08/25 00:14:36;;;;;;;22.08;17.13;;;19.60;99.90;;;;;;5013198;28;20133;-70
2023/08/25 00:17:03;;;;;;;21.60;16.33;;;19.50;99.90;;;;;;5013598;28;20136;-70
2023/08/25 00:19:28;;;;;;;24.85;16.25;;;19.50;99.90;;;;;;5020195;28;20041;-69
2023/08/25 00:21:54;;;;;;;21.00;16.10;;;19.50;99.90;;;;;;5012114;28;20052;-70
2023/08/25 00:24:20;;;;;;;19.27;16.48;;;19.50;99.90;;;;;;5030155;28;20044;-68
2023/08/25 00:26:45;;;;;;;23.40;17.42;;;19.40;99.90;;;;;;5031933;28;20595;-69
2023/08/25 00:29:11;;;;;;;21.30;16.80;;;19.30;99.90;;;;;;5007875;28;20109;-68
2023/08/25 00:31:37;;;;;;;22.48;17.30;;;19.20;99.90;;;;;;5011366;28;20373;-68
2023/08/25 00:34:02;;;;;;;23.05;17.42;;;19.20;99.90;;;;;;5031125;28;20140;-68
2023/08/25 00:36:28;;;;;;;23.13;17.77;;;19.20;99.90;;;;;;5017555;28;20510;-68
2023/08/25 00:38:54;;;;;;;21.10;17.60;;;19.10;99.90;;;;;;5010893;28;20041;-68
2023/08/25 00:41:20;;;;;;;23.85;18.48;;;19.10;99.90;;;;;;5030898;28;20513;-68
2023/08/25 00:43:45;;;;;;;24.52;19.15;;;19.10;99.90;;;;;;5023851;28;20030;-68
2023/08/25 00:46:12;;;;;;;25.17;19.30;;;19.00;99.90;;;;;;4996984;28;20108;-68
2023/08/25 00:48:39;;;;;;;24.75;18.95;;;19.00;99.90;;;;;;5030788;28;20041;-68
2023/08/25 00:51:07;;;;;;;26.92;19.27;;;19.00;99.90;;;;;;5021689;28;20042;-68
2023/08/25 00:53:34;;;;;;;23.15;18.23;;;19.00;99.90;;;;;;5018036;28;20202;-68
2023/08/25 00:56:01;;;;;;;23.17;18.17;;;19.00;99.90;;;;;;5014844;28;20041;-67
2023/08/25 00:58:26;;;;;;;27.80;19.45;;;19.00;99.90;;;;;;5050572;28;20400;-68
2023/08/25 01:00:53;;;;;;;25.10;18.88;;;19.00;99.90;;;;;;5016040;28;20143;-68
2023/08/25 01:03:19;;;;;;;24.98;20.08;;;19.10;99.90;;;;;;5030100;28;20042;-67
2023/08/25 01:05:48;;;;;;;28.27;19.35;;;19.10;99.90;;;;;;5030909;28;20040;-68
2023/08/25 01:08:19;;;;;;;27.30;19.42;;;19.10;99.90;;;;;;5007889;28;20038;-68
2023/08/25 01:11:07;;;;;;;26.27;19.75;;;19.20;99.90;;;;;;5019230;28;20668;-68
2023/08/25 01:14:13;;;;;;;26.77;19.67;;;19.20;99.90;;;;;;5025630;28;20049;-68
2023/08/25 01:17:01;;;;;;;28.63;20.38;;;19.30;99.90;;;;;;5013058;28;20527;-68
2023/08/25 01:19:44;;;;;;;26.83;19.77;;;19.30;99.90;;;;;;5022377;28;20037;-70
2023/08/25 01:22:16;;;;;;;26.63;19.15;;;19.30;99.90;;;;;;5019918;28;20037;-68
2023/08/25 01:24:46;;;;;;;25.65;19.48;;;19.30;99.90;;;;;;5054339;28;20119;-67
2023/08/25 01:27:12;;;;;;;23.77;18.35;;;19.40;99.90;;;;;;5018080;28;20106;-68
2023/08/25 01:29:43;;;;;;;23.98;18.50;;;19.40;99.90;;;;;;5029354;28;20400;-68
2023/08/25 01:32:09;;;;;;;;;;;19.40;99.90;;;;;;5018007;28;20029;-67
2023/08/25 01:34:36;;;;;;;27.50;18.17;;;19.40;99.90;;;;;;5029094;28;19942;-67
2023/08/25 01:37:28;;;;;;;24.05;17.95;;;19.40;99.90;;;;;;5033914;28;20041;-68
2023/08/25 01:39:58;;;;;;;29.67;18.85;;;19.50;99.90;;;;;;5022512;28;20117;-68
2023/08/25 01:42:27;;;;;;;24.57;18.40;;;19.50;99.90;;;;;;5031164;28;20041;-68
2023/08/25 01:44:54;;;;;;;23.30;18.05;;;19.50;99.90;;;;;;5015326;28;20327;-68
2023/08/25 01:47:24;;;;;;;24.92;18.77;;;19.50;99.90;;;;;;5006799;28;20041;-68
2023/08/25 01:49:52;;;;;;;26.67;18.40;;;19.50;99.90;;;;;;5017176;28;20037;-69
2023/08/25 01:52:18;;;;;;;29.70;18.55;;;19.50;99.90;;;;;;5035480;28;20046;-70
2023/08/25 01:54:44;;;;;;;26.13;18.23;;;19.50;99.90;;;;;;5032992;28;20029;-70
2023/08/25 01:57:10;;;;;;;26.90;19.00;;;19.50;99.90;;;;;;5018988;28;20082;-68
2023/08/25 01:59:35;;;;;;;27.23;18.67;;;19.50;99.90;;;;;;5010722;28;20041;-68
2023/08/25 02:02:01;;;;;;;23.58;18.48;;;19.40;99.90;;;;;;5033772;28;20171;-68
2023/08/25 02:04:26;;;;;;;26.08;18.77;;;19.40;99.90;;;;;;5020866;28;20034;-68
2023/08/25 02:06:52;;;;;;;28.90;19.35;;;19.40;99.90;;;;;;5026681;28;20045;-68
2023/08/25 02:09:18;;;;;;;25.17;19.05;;;19.40;99.90;;;;;;5015384;28;20041;-68
2023/08/25 02:11:43;;;;;;;26.27;19.63;;;19.40;99.90;;;;;;5033904;28;20034;-68
2023/08/25 02:14:09;;;;;;;27.17;19.30;;;19.30;99.90;;;;;;5026363;28;20036;-67
2023/08/25 02:16:34;;;;;;;33.03;20.90;;;19.40;99.90;;;;;;5023543;28;20064;-68
2023/08/25 02:19:00;;;;;;;29.00;20.48;;;19.30;99.90;;;;;;5032903;28;20044;-68
2023/08/25 02:21:26;;;;;;;30.50;20.65;;;19.30;99.90;;;;;;5007084;28;20377;-68
2023/08/25 02:23:51;;;;;;;32.95;20.55;;;19.30;99.90;;;;;;5006082;28;20100;-67
2023/08/25 02:26:17;;;;;;;31.58;20.08;;;19.20;99.90;;;;;;5034164;28;20072;-69
2023/08/25 02:28:42;;;;;;;30.73;20.85;;;19.30;99.90;;;;;;5035128;28;20048;-68
2023/08/25 02:31:08;;;;;;;30.60;21.40;;;19.30;99.90;;;;;;5019010;28;20056;-67
2023/08/25 02:33:35;;;;;;;30.23;21.25;;;19.30;99.90;;;;;;5015286;28;20116;-67
2023/08/25 02:36:00;;;;;;;34.45;21.25;;;19.30;99.90;;;;;;5033094;28;20091;-69
2023/08/25 02:38:26;;;;;;;34.78;22.95;;;19.30;99.90;;;;;;5008524;28;20041;-69
2023/08/25 02:40:52;;;;;;;34.65;23.00;;;19.30;99.90;;;;;;5032327;28;20116;-69
2023/08/25 02:43:17;;;;;;;32.40;22.52;;;19.40;99.90;;;;;;5015586;28;20049;-69
2023/08/25 02:45:43;;;;;;;32.25;21.88;;;19.30;99.90;;;;;;5033052;28;20465;-69
2023/08/25 02:48:08;;;;;;;33.72;22.55;;;19.30;99.90;;;;;;5026826;28;20033;-69
2023/08/25 02:50:34;;;;;;;31.30;22.00;;;19.30;99.90;;;;;;5026952;28;20029;-70
2023/08/25 02:53:00;;;;;;;35.15;23.27;;;19.20;99.90;;;;;;5032726;28;20045;-70
2023/08/25 02:55:26;;;;;;;37.70;23.98;;;19.10;99.90;;;;;;5013804;28;20033;-70
2023/08/25 02:57:52;;;;;;;36.20;24.35;;;19.10;99.90;;;;;;5029416;28;20048;-70
2023/08/25 03:00:26;;;;;;;36.97;24.15;;;19.00;99.90;;;;;;5014512;28;20058;-70
2023/08/25 03:02:52;;;;;;;39.97;24.45;;;19.00;99.90;;;;;;5001559;28;20492;-70
2023/08/25 03:05:18;;;;;;;37.10;24.48;;;18.90;99.90;;;;;;5021250;28;20064;-70
2023/08/25 03:07:44;;;;;;;38.65;25.42;;;18.90;99.90;;;;;;5035693;28;20517;-70
2023/08/25 03:10:10;;;;;;;41.92;25.25;;;18.90;99.90;;;;;;5017360;28;20105;-70
2023/08/25 03:12:36;;;;;;;40.63;25.92;;;18.90;99.90;;;;;;5015678;28;20026;-68
2023/08/25 03:15:02;;;;;;;47.75;26.73;;;18.90;99.90;;;;;;5013227;28;20084;-68
2023/08/25 03:17:28;;;;;;;42.83;25.70;;;18.80;99.90;;;;;;5031630;28;20034;-68
2023/08/25 03:19:53;;;;;;;45.10;26.95;;;18.80;99.90;;;;;;5004448;28;20046;-68
2023/08/25 03:22:19;;;;;;;43.67;27.27;;;18.70;99.90;;;;;;5026644;28;20036;-68
2023/08/25 03:24:45;;;;;;;48.97;27.90;;;18.70;99.90;;;;;;5009471;28;20049;-68
2023/08/25 03:27:11;;;;;;;47.95;27.30;;;18.70;99.90;;;;;;5019251;28;20068;-68
2023/08/25 03:29:36;;;;;;;56.15;29.58;;;18.70;99.90;;;;;;5029683;28;21582;-70
2023/08/25 03:32:02;;;;;;;51.15;28.95;;;18.60;99.90;;;;;;5013763;28;20037;-70
2023/08/25 03:34:29;;;;;;;51.35;28.95;;;18.70;99.90;;;;;;5020116;28;20113;-70
2023/08/25 03:36:55;;;;;;;50.00;28.02;;;18.60;99.90;;;;;;5024227;28;20046;-70
2023/08/25 03:39:20;;;;;;;47.35;27.23;;;18.50;99.90;;;;;;5013630;28;20056;-70
2023/08/25 03:41:46;;;;;;;50.30;29.38;;;18.50;99.90;;;;;;5028616;28;20040;-70
2023/08/25 03:44:11;;;;;;;51.50;28.38;;;18.50;99.90;;;;;;5020684;28;20037;-69
2023/08/25 03:46:37;;;;;;;55.63;30.33;;;18.50;99.90;;;;;;5030937;28;20036;-69
2023/08/25 03:49:03;;;;;;;53.97;29.00;;;18.50;99.90;;;;;;5024031;28;20091;-69
2023/08/25 03:51:29;;;;;;;52.08;29.45;;;18.40;99.90;;;;;;5014870;28;20454;-69
2023/08/25 03:53:55;;;;;;;54.58;29.70;;;18.40;99.90;;;;;;5020373;28;20128;-69
2023/08/25 03:56:21;;;;;;;57.42;29.73;;;18.40;99.90;;;;;;5009181;28;20068;-69
2023/08/25 03:58:47;;;;;;;55.40;30.73;;;18.40;99.90;;;;;;5032349;28;20055;-69
2023/08/25 04:01:12;;;;;;;56.10;30.55;;;18.40;99.90;;;;;;5024026;28;20045;-69
2023/08/25 04:03:39;;;;;;;60.40;30.17;;;18.30;99.90;;;;;;5003478;28;20037;-69
2023/08/25 04:06:05;;;;;;;54.58;30.08;;;18.30;99.90;;;;;;5031358;28;20045;-70
2023/08/25 04:08:30;;;;;;;53.30;31.25;;;18.20;99.90;;;;;;5032008;28;20041;-69
2023/08/25 04:10:56;;;;;;;61.35;30.13;;;18.20;99.90;;;;;;5022044;28;20519;-68
2023/08/25 04:13:21;;;;;;;55.25;28.85;;;18.20;99.90;;;;;;5031226;28;20117;-69
2023/08/25 04:15:57;;;;;;;55.15;29.98;;;18.20;99.90;;;;;;5031221;28;20031;-68
2023/08/25 04:18:24;;;;;;;51.42;28.55;;;18.20;99.90;;;;;;5011426;28;20052;-68
2023/08/25 04:20:49;;;;;;;49.90;29.88;;;18.20;99.90;;;;;;5022458;28;20077;-68
2023/08/25 04:23:15;;;;;;;49.75;29.58;;;18.20;99.90;;;;;;5013193;28;20503;-68
2023/08/25 04:25:42;;;;;;;52.47;29.45;;;18.20;99.90;;;;;;5030218;28;20424;-68
2023/08/25 04:28:07;;;;;;;56.85;29.85;;;18.10;99.90;;;;;;5011869;28;20046;-70
2023/08/25 04:30:33;;;;;;;50.45;28.35;;;18.10;99.90;;;;;;5025483;28;20035;-70
2023/08/25 04:32:59;;;;;;;47.35;28.92;;;18.10;99.90;;;;;;5029544;28;20480;-68
2023/08/25 04:35:24;;;;;;;52.60;28.77;;;18.10;99.90;;;;;;5024661;28;20475;-70
2023/08/25 04:37:50;;;;;;;54.47;28.90;;;18.10;99.90;;;;;;5026597;28;20128;-70
2023/08/25 04:40:20;;;;;;;53.22;29.02;;;18.00;99.90;;;;;;5012604;28;20412;-70
2023/08/25 04:42:46;;;;;;;55.10;29.73;;;17.90;99.90;;;;;;5022340;28;20041;-70
2023/08/25 04:45:13;;;;;;;55.28;29.80;;;17.90;99.90;;;;;;5027130;28;20037;-70
2023/08/25 04:47:39;;;;;;;58.20;30.13;;;17.80;99.90;;;;;;5029810;28;20046;-70
2023/08/25 04:50:07;;;;;;;57.55;31.48;;;17.80;99.90;;;;;;5021990;28;20044;-70
2023/08/25 04:52:36;;;;;;;60.72;31.20;;;17.90;99.90;;;;;;5013053;28;20252;-70
2023/08/25 04:55:05;;;;;;;59.30;31.15;;;17.90;99.90;;;;;;5030681;28;20041;-70
2023/08/25 04:57:32;;;;;;;62.22;29.65;;;17.90;99.90;;;;;;5033475;28;20038;-70
2023/08/25 04:59:58;;;;;;;63.30;31.42;;;17.80;99.90;;;;;;5031345;28;20037;-70
2023/08/25 05:02:23;;;;;;;60.72;31.30;;;17.80;99.90;;;;;;5026603;28;20033;-68
2023/08/25 05:04:49;;;;;;;67.18;32.15;;;17.90;99.90;;;;;;5033582;28;20064;-72
2023/08/25 05:07:15;;;;;;;73.82;32.67;;;17.90;99.90;;;;;;5009546;28;20038;-70
2023/08/25 05:09:41;;;;;;;77.10;34.70;;;18.00;99.90;;;;;;5012467;28;20383;-68
2023/08/25 05:12:07;;;;;;;70.38;34.20;;;18.00;99.90;;;;;;5015357;28;20033;-69
2023/08/25 05:14:33;;;;;;;76.47;33.63;;;18.00;99.90;;;;;;5025558;28;20041;-67
2023/08/25 05:16:59;;;;;;;71.18;34.30;;;18.00;99.90;;;;;;5021386;28;20119;-68
2023/08/25 05:19:24;;;;;;;68.55;34.38;;;18.10;99.90;;;;;;5023848;28;20113;-68
2023/08/25 05:21:50;;;;;;;76.00;34.60;;;18.10;99.90;;;;;;5027809;28;20038;-70
2023/08/25 05:24:20;;;;;;;78.03;34.55;;;18.20;99.90;;;;;;5016880;28;20544;-70
2023/08/25 05:26:53;;;;;;;75.22;35.00;;;18.20;99.90;;;;;;5001549;28;20148;-70
2023/08/25 05:29:23;;;;;;;74.45;34.25;;;18.30;99.90;;;;;;5004728;28;20481;-70
2023/08/25 05:31:50;;;;;;;76.22;35.13;;;18.40;99.90;;;;;;5036571;28;20037;-68
2023/08/25 05:34:15;;;;;;;70.75;34.25;;;18.40;99.90;;;;;;5021278;28;20139;-68
2023/08/25 05:36:42;;;;;;;71.85;34.33;;;18.40;99.90;;;;;;5022834;28;20661;-68
2023/08/25 05:39:07;;;;;;;73.97;34.35;;;18.50;99.90;;;;;;5023354;28;20065;-69
2023/08/25 05:41:34;;;;;;;73.05;35.72;;;18.60;99.90;;;;;;5004666;28;20061;-69
2023/08/25 05:44:01;;;;;;;71.82;34.40;;;18.70;99.90;;;;;;5001477;28;20048;-68
2023/08/25 05:46:28;;;;;;;74.07;34.85;;;18.70;99.90;;;;;;5023997;28;20377;-68
2023/08/25 05:48:54;;;;;;;76.78;34.97;;;18.80;99.90;;;;;;5023344;28;20042;-68
2023/08/25 05:51:19;;;;;;;72.93;36.13;;;18.90;99.90;;;;;;5020793;28;20522;-68
2023/08/25 05:53:45;;;;;;;74.65;35.22;;;19.00;99.90;;;;;;5029693;28;20055;-68
2023/08/25 05:56:11;;;;;;;86.65;35.97;;;19.10;99.90;;;;;;5032783;28;20491;-68
2023/08/25 05:58:36;;;;;;;87.03;36.47;;;19.20;99.90;;;;;;5026317;28;20102;-68
2023/08/25 06:01:02;;;;;;;90.50;35.45;;;19.30;99.90;;;;;;4997614;28;20415;-68
2023/08/25 06:03:27;;;;;;;97.80;34.58;;;19.40;99.90;;;;;;5014775;28;20130;-68
2023/08/25 06:05:53;;;;;;;80.63;35.03;;;19.40;99.90;;;;;;5027535;28;20045;-68
2023/08/25 06:08:22;;;;;;;86.78;35.72;;;19.40;99.90;;;;;;5023515;28;20034;-68
2023/08/25 06:10:49;;;;;;;92.25;35.47;;;19.40;99.90;;;;;;5032007;28;20065;-68
2023/08/25 06:13:15;;;;;;;85.75;33.97;;;19.40;99.90;;;;;;5013992;28;20052;-68
2023/08/25 06:15:40;;;;;;;101.50;33.78;;;19.40;99.90;;;;;;5027986;28;20029;-68
2023/08/25 06:18:06;;;;;;;80.88;33.75;;;19.40;99.90;;;;;;5031445;28;20428;-68
2023/08/25 06:20:32;;;;;;;76.15;33.08;;;19.40;99.90;;;;;;5008213;28;20099;-69
2023/08/25 06:22:58;;;;;;;81.00;32.60;;;19.50;99.90;;;;;;5032049;28;20043;-69
2023/08/25 06:25:24;;;;;;;80.60;32.85;;;19.50;99.90;;;;;;4998104;28;20099;-68
2023/08/25 06:27:49;;;;;;;72.55;33.72;;;19.60;99.90;;;;;;5028385;28;20044;-70
2023/08/25 06:30:18;;;;;;;65.35;33.92;;;19.60;99.90;;;;;;5010501;28;20038;-68
2023/08/25 06:32:44;;;;;;;61.28;34.00;;;19.70;99.90;;;;;;5028589;28;20037;-69
2023/08/25 06:35:12;;;;;;;63.55;34.72;;;19.70;99.90;;;;;;5024392;28;20034;-71
2023/08/25 06:37:38;;;;;;;58.35;32.45;;;19.70;99.90;;;;;;5030831;28;20120;-70
2023/08/25 06:40:07;;;;;;;61.53;33.05;;;19.70;99.90;;;;;;5032169;28;20041;-70
2023/08/25 06:42:33;;;;;;;60.08;32.70;;;19.80;99.90;;;;;;5025819;28;20447;-71
2023/08/25 06:44:59;;;;;;;60.38;33.55;;;19.80;99.90;;;;;;5033720;28;20034;-70
2023/08/25 06:47:27;;;;;;;56.85;31.80;;;19.80;99.90;;;;;;5015844;28;20385;-70
2023/08/25 06:49:53;;;;;;;54.83;31.98;;;19.80;99.90;;;;;;5018502;28;20534;-71
2023/08/25 06:52:19;;;;;;;54.70;32.10;;;19.80;99.90;;;;;;5031182;28;20030;-71
2023/08/25 06:54:44;;;;;;;56.03;32.83;;;19.90;99.90;;;;;;5028454;28;20496;-71
2023/08/25 06:57:10;;;;;;;53.72;32.17;;;19.90;99.90;;;;;;4999137;28;20037;-70
2023/08/25 06:59:36;;;;;;;51.33;31.13;;;19.90;99.90;;;;;;5025298;28;20037;-70
2023/08/25 07:02:02;;;;;;;52.25;32.10;;;20.00;99.90;;;;;;5045870;28;20044;-69
2023/08/25 07:04:28;;;;;;;53.75;31.75;;;20.10;99.90;;;;;;5023937;28;20041;-71
2023/08/25 07:06:53;;;;;;;51.72;32.15;;;20.10;99.90;;;;;;5012823;28;20041;-70
2023/08/25 07:09:19;;;;;;;53.90;32.20;;;20.20;99.90;;;;;;5031098;28;20484;-70
2023/08/25 07:11:44;;;;;;;52.85;32.53;;;20.30;99.90;;;;;;5012920;28;20029;-69
2023/08/25 07:14:10;;;;;;;52.45;32.13;;;20.40;99.90;;;;;;5007179;28;20037;-69
2023/08/25 07:16:36;;;;;;;48.92;30.90;;;20.50;99.90;;;;;;5030504;28;20040;-69
2023/08/25 07:19:01;;;;;;;50.40;31.50;;;20.60;99.90;;;;;;5026841;28;20124;-69
2023/08/25 07:21:27;;;;;;;47.60;29.40;;;20.60;99.90;;;;;;5021222;28;20536;-70
2023/08/25 07:23:53;;;;;;;55.13;32.13;;;20.70;99.90;;;;;;5012036;28;20077;-69
2023/08/25 07:26:18;;;;;;;52.22;31.23;;;20.80;99.90;;;;;;5030683;28;20044;-70
2023/08/25 07:28:44;;;;;;;54.15;31.95;;;20.90;99.90;;;;;;5010376;28;20551;-69
2023/08/25 07:31:09;;;;;;;48.55;30.65;;;21.00;99.90;;;;;;5025305;28;20029;-69
2023/08/25 07:33:35;;;;;;;51.20;32.17;;;21.10;99.90;;;;;;5012359;28;20464;-69
2023/08/25 07:36:03;;;;;;;51.55;31.77;;;21.20;99.90;;;;;;5030812;28;20452;-71
2023/08/25 07:38:29;;;;;;;48.17;31.55;;;21.20;99.90;;;;;;5005761;28;20033;-71
2023/08/25 07:40:56;;;;;;;45.67;31.05;;;21.30;99.90;;;;;;5012287;28;20104;-71
2023/08/25 07:43:22;;;;;;;45.55;30.50;;;21.40;99.90;;;;;;5028090;28;20436;-71
2023/08/25 07:45:48;;;;;;;42.88;29.63;;;21.50;99.90;;;;;;5021612;28;20156;-71
2023/08/25 07:48:14;;;;;;;44.17;29.95;;;21.50;99.90;;;;;;5006070;28;20040;-71
2023/08/25 07:50:40;;;;;;;42.30;28.88;;;21.50;99.90;;;;;;5029233;28;20095;-71
2023/08/25 07:53:06;;;;;;;44.75;30.02;;;21.50;99.90;;;;;;5020866;28;20554;-69
2023/08/25 07:55:32;;;;;;;43.20;29.52;;;21.50;99.90;;;;;;5015637;28;20349;-69
2023/08/25 07:57:58;;;;;;;43.08;28.27;;;21.40;99.90;;;;;;5026298;28;20052;-70
2023/08/25 08:00:26;;;;;;;39.63;28.65;;;21.50;99.90;;;;;;5003156;28;20041;-70
2023/08/25 08:02:52;;;;;;;45.67;30.50;;;21.60;99.90;;;;;;5004495;28;20055;-71
2023/08/25 08:05:18;;;;;;;46.03;30.88;;;21.80;99.90;;;;;;5021473;28;20040;-71
2023/08/25 08:07:50;;;;;;;41.75;28.83;;;22.00;99.90;;;;;;5014512;28;20044;-71
2023/08/25 08:10:17;;;;;;;43.00;30.85;;;22.00;99.90;;;;;;4999466;28;20033;-71
2023/08/25 08:12:43;;;;;;;41.63;29.05;;;22.00;99.90;;;;;;5002086;28;20073;-69
2023/08/25 08:15:11;;;;;;;46.33;30.45;;;22.00;99.90;;;;;;5021103;28;20048;-69
2023/08/25 08:17:36;;;;;;;44.05;30.15;;;22.00;99.90;;;;;;5004851;28;20050;-68
2023/08/25 08:20:07;;;;;;;43.20;29.42;;;22.00;99.90;;;;;;5023088;28;20042;-71
2023/08/25 08:22:32;;;;;;;42.33;29.20;;;22.00;99.90;;;;;;5005115;28;20120;-71
2023/08/25 08:24:58;;;;;;;42.33;28.05;;;21.90;99.90;;;;;;5022599;28;20456;-71
2023/08/25 08:27:25;;;;;;;43.22;29.38;;;21.90;99.90;;;;;;4998998;28;20739;-71
2023/08/25 08:29:51;;;;;;;46.13;29.98;;;21.90;99.90;;;;;;5013950;28;20042;-71
2023/08/25 08:32:17;;;;;;;44.85;29.85;;;21.90;99.90;;;;;;5011228;28;20044;-71
2023/08/25 08:34:43;;;;;;;38.83;28.88;;;21.80;99.90;;;;;;5003511;28;20049;-71
2023/08/25 08:37:09;;;;;;;42.72;29.17;;;21.80;99.90;;;;;;5013410;28;20040;-71
2023/08/25 08:39:37;;;;;;;40.70;28.23;;;21.80;99.90;;;;;;5014417;28;20045;-71
2023/08/25 08:42:03;;;;;;;43.15;27.42;;;21.80;99.90;;;;;;5003153;28;20046;-71
2023/08/25 08:44:36;;;;;;;44.30;29.02;;;21.80;99.90;;;;;;5004489;28;20044;-71
2023/08/25 08:47:05;;;;;;;42.35;29.50;;;21.80;99.90;;;;;;5017436;28;20064;-71
2023/08/25 08:49:33;;;;;;;42.90;30.58;;;21.80;99.90;;;;;;5029735;28;20080;-70
2023/08/25 08:52:01;;;;;;;42.97;29.73;;;22.00;99.90;;;;;;5046192;28;20052;-69
2023/08/25 08:54:27;;;;;;;41.42;29.17;;;22.10;99.90;;;;;;5028334;28;20483;-69
2023/08/25 08:56:54;;;;;;;44.80;29.33;;;22.10;99.90;;;;;;5029599;28;20049;-70
2023/08/25 08:59:20;;;;;;;42.58;28.90;;;22.20;99.90;;;;;;5031749;28;20140;-69
2023/08/25 09:01:48;;;;;;;37.38;27.60;;;22.30;99.90;;;;;;4996011;28;20432;-68
2023/08/25 09:04:19;;;;;;;37.40;27.00;;;22.40;99.90;;;;;;5016547;28;20404;-70
2023/08/25 09:06:49;;;;;;;39.10;27.98;;;22.40;99.90;;;;;;5018769;28;20069;-68
2023/08/25 09:09:18;;;;;;;41.95;28.27;;;22.50;99.90;;;;;;5027879;28;20495;-68
2023/08/25 09:11:45;;;;;;;38.38;27.92;;;22.50;99.90;;;;;;5027918;28;20108;-68
2023/08/25 09:14:11;;;;;;;43.83;29.48;;;22.60;99.90;;;;;;5022500;28;20091;-68
2023/08/25 09:16:37;;;;;;;45.03;30.00;;;22.60;99.90;;;;;;5026572;28;20104;-68
2023/08/25 09:19:04;;;;;;;45.17;29.17;;;22.50;99.90;;;;;;5022849;28;20300;-69
2023/08/25 09:21:30;;;;;;;42.40;30.15;;;22.50;99.90;;;;;;5013136;28;20156;-68
2023/08/25 09:23:58;;;;;;;45.92;30.67;;;22.50;99.90;;;;;;5022164;28;20080;-68
2023/08/25 09:26:25;;;;;;;40.78;29.80;;;22.50;99.90;;;;;;5023823;28;20042;-68
2023/08/25 09:28:53;;;;;;;45.15;30.27;;;22.60;99.90;;;;;;5016669;28;20042;-68
2023/08/25 09:31:27;;;;;;;43.85;29.38;;;22.70;99.90;;;;;;5000135;28;20034;-67
2023/08/25 09:34:00;;;;;;;44.70;29.95;;;22.80;99.90;;;;;;5029620;28;20034;-67
2023/08/25 09:36:26;;;;;;;43.78;29.70;;;22.80;99.90;;;;;;5007117;28;20038;-67
2023/08/25 09:38:52;;;;;;;45.72;31.33;;;22.60;99.90;;;;;;5033388;28;20499;-68
2023/08/25 09:41:24;;;;;;;42.95;30.33;;;22.50;99.90;;;;;;5034464;28;20037;-68
2023/08/25 09:43:50;;;;;;;42.05;30.35;;;22.50;99.90;;;;;;5026183;28;20111;-66
2023/08/25 09:46:16;;;;;;;43.75;30.02;;;22.30;99.90;;;;;;5020730;28;20038;-67
2023/08/25 09:48:45;;;;;;;39.13;29.77;;;22.30;99.90;;;;;;5036104;28;20044;-67
2023/08/25 09:51:11;;;;;;;40.30;29.33;;;22.20;99.90;;;;;;5026595;28;20566;-68
2023/08/25 09:53:39;;;;;;;42.25;28.88;;;22.10;99.90;;;;;;5010696;28;20065;-66
2023/08/25 09:56:06;;;;;;;43.97;30.55;;;22.10;99.90;;;;;;5015581;28;20049;-66
2023/08/25 09:58:33;;;;;;;43.53;30.50;;;22.00;99.90;;;;;;5033647;28;20037;-66
2023/08/25 10:00:59;;;;;;;41.38;29.88;;;21.90;99.90;;;;;;4997265;28;20042;-66
2023/08/25 10:03:26;;;;;;;44.63;30.30;;;21.90;99.90;;;;;;5018059;28;20455;-67
2023/08/25 10:05:52;;;;;;;45.55;30.25;;;21.90;99.90;;;;;;5011673;28;20045;-69
2023/08/25 10:08:18;;;;;;;45.47;30.80;;;22.00;99.90;;;;;;5028058;28;20415;-70
2023/08/25 10:10:45;;;;;;;43.72;29.90;;;22.10;99.90;;;;;;5032051;28;20677;-70
2023/08/25 10:13:15;;;;;;;44.70;28.88;;;22.00;99.90;;;;;;5033163;28;20044;-69
2023/08/25 10:15:42;;;;;;;34.20;24.20;;;22.00;99.90;;;;;;5006579;28;20055;-68
2023/08/25 10:18:09;;;;;;;39.30;26.33;;;22.00;99.90;;;;;;4999482;28;20288;-69
2023/08/25 10:20:36;;;;;;;39.22;26.27;;;22.20;99.90;;;;;;5015240;28;20156;-69
2023/08/25 10:23:08;;;;;;;34.83;25.33;;;22.60;99.90;;;;;;5008790;28;20041;-68
2023/08/25 10:25:36;;;;;;;30.00;21.23;;;23.00;99.90;;;;;;5016009;28;20041;-69
2023/08/25 10:28:05;;;;;;;30.17;21.52;;;23.10;99.90;;;;;;5027933;28;20050;-69
2023/08/25 10:30:32;;;;;;;31.50;22.73;;;23.30;99.90;;;;;;5028826;28;20099;-68
2023/08/25 10:33:09;;;;;;;29.05;21.83;;;23.50;99.90;;;;;;5019381;28;20045;-68
2023/08/25 10:35:43;;;;;;;28.90;22.00;;;23.60;99.90;;;;;;5015323;28;20053;-68
2023/08/25 10:38:27;;;;;;;28.17;21.88;;;23.80;99.90;;;;;;5023291;28;20041;-68
2023/08/25 10:40:55;;;;;;;30.23;20.48;;;24.10;99.90;;;;;;5021569;28;20046;-70
2023/08/25 10:43:31;;;;;;;19.85;16.00;;;24.30;99.90;;;;;;5011238;28;20053;-69
2023/08/25 10:46:00;;;;;;;25.55;19.23;;;24.40;99.90;;;;;;5023791;28;20492;-69
2023/08/25 10:48:26;;;;;;;23.58;18.50;;;24.30;99.90;;;;;;5031344;28;20044;-69
2023/08/25 10:50:53;;;;;;;17.65;12.40;;;24.20;99.90;;;;;;5012478;28;20044;-68
2023/08/25 10:53:54;;;;;;;14.93;12.93;;;24.40;99.90;;;;;;5020737;28;20064;-68
2023/08/25 10:56:23;;;;;;;14.93;12.93;;;24.80;99.90;;;;;;4937708;29;20036;-69
2023/08/25 10:59:02;;;;;;;17.38;14.82;;;24.80;99.90;;;;;;4996554;28;20073;-67
2023/08/25 11:01:52;;;;;;;17.75;14.75;;;24.90;99.90;;;;;;5026795;28;20037;-68
2023/08/25 11:04:25;;;;;;;21.63;15.15;;;24.90;99.90;;;;;;5032479;28;20037;-68
2023/08/25 11:06:56;;;;;;;19.73;14.65;;;24.80;99.90;;;;;;5010835;28;20038;-68
2023/08/25 11:09:26;;;;;;;14.45;10.50;;;25.00;99.90;;;;;;5030286;28;20073;-68
2023/08/25 11:12:03;;;;;;;20.65;13.85;;;25.20;99.90;;;;;;5014682;28;20051;-67
2023/08/25 11:14:38;;;;;;;20.77;15.80;;;25.60;99.90;;;;;;5027940;28;20103;-67
2023/08/25 11:17:06;;;;;;;18.75;14.05;;;25.60;99.90;;;;;;5030012;28;20041;-68
2023/08/25 11:19:33;;;;;;;22.98;17.85;;;25.60;99.90;;;;;;5032094;28;20039;-68
2023/08/25 11:22:01;;;;;;;18.85;15.95;;;25.50;99.90;;;;;;5014814;28;20068;-69
2023/08/25 11:24:29;;;;;;;20.67;15.48;;;25.30;99.90;;;;;;5026956;28;20083;-68
2023/08/25 11:27:09;;;;;;;12.98;10.25;;;25.20;99.90;;;;;;5024715;28;20472;-68
2023/08/25 11:29:34;;;;;;;14.38;11.65;;;25.00;99.90;;;;;;5014484;28;20076;-68
2023/08/25 11:32:02;;;;;;;12.60;10.90;;;24.80;99.90;;;;;;5024957;28;20068;-68
2023/08/25 11:34:33;;;;;;;10.15;8.18;;;24.60;99.90;;;;;;5028036;28;20041;-68
2023/08/25 11:37:00;;;;;;;8.55;7.10;;;24.40;99.90;;;;;;5031770;28;20571;-68
2023/08/25 11:39:26;;;;;;;9.77;7.88;;;24.30;99.90;;;;;;5023823;28;20040;-67
2023/08/25 11:41:55;;;;;;;11.52;8.50;;;24.10;99.90;;;;;;5024558;28;20045;-67
2023/08/25 11:44:25;;;;;;;7.43;5.93;;;23.90;99.90;;;;;;5029818;28;20087;-68
2023/08/25 11:46:54;;;;;;;11.05;8.93;;;23.70;99.90;;;;;;5024705;28;20030;-67
2023/08/25 11:49:20;;;;;;;10.45;8.63;;;23.60;99.90;;;;;;5020373;28;20034;-68
2023/08/25 11:51:48;;;;;;;14.48;9.27;;;23.50;99.90;;;;;;5011627;28;20041;-68
2023/08/25 11:54:14;;;;;;;9.90;7.40;;;23.50;99.90;;;;;;5010910;28;20030;-68
2023/08/25 11:56:47;;;;;;;6.72;5.82;;;23.40;99.90;;;;;;5019691;28;20457;-66
2023/08/25 11:59:17;;;;;;;7.40;5.85;;;23.30;99.90;;;;;;5019518;28;20403;-66
2023/08/25 12:01:42;;;;;;;7.43;6.38;;;23.30;99.90;;;;;;5018954;28;20122;-67
2023/08/25 12:04:29;;;;;;;5.78;4.82;;;23.20;99.90;;;;;;5016013;28;20049;-66
2023/08/25 12:06:57;;;;;;;9.63;5.40;;;23.10;99.90;;;;;;5027410;28;20068;-66
2023/08/25 12:09:24;;;;;;;11.93;5.97;;;22.80;99.90;;;;;;5025793;28;20033;-66
2023/08/25 12:11:56;;;;;;;6.90;5.80;;;22.70;99.90;;;;;;5029290;28;20040;-66
2023/08/25 12:14:27;;;;;;;10.20;6.50;;;22.60;99.90;;;;;;5030101;28;20037;-67
2023/08/25 12:16:53;;;;;;;;;;;22.60;99.90;;;;;;5026932;28;20167;-67
2023/08/25 12:19:18;;;;;;;6.75;4.95;;;22.50;99.90;;;;;;5030055;28;20635;-67
2023/08/25 12:21:49;;;;;;;8.65;6.45;;;22.30;99.90;;;;;;5024778;28;20097;-67
2023/08/25 12:24:14;;;;;;;9.35;7.60;;;22.30;99.90;;;;;;5010922;28;20747;-66
2023/08/25 12:26:40;;;;;;;10.40;8.65;;;22.40;99.90;;;;;;5026672;28;20112;-66
2023/08/25 12:29:06;;;;;;;11.48;10.10;;;22.40;99.90;;;;;;5030870;28;20484;-67
2023/08/25 12:31:32;;;;;;;15.45;12.68;;;22.50;99.90;;;;;;5014715;28;20030;-67